createdAt,value
2017-12-20T00:01:41.184Z,7.05
2017-12-20T00:04:08.092Z,8.98
2017-12-20T00:06:36.038Z,9.57
2017-12-20T00:09:02.959Z,8.25
2017-12-20T00:11:30.648Z,10.80
2017-12-20T00:13:57.561Z,9.80
2017-12-20T00:16:25.250Z,9.10
2017-12-20T00:18:52.170Z,9.75
2017-12-20T00:21:19.863Z,11.02
2017-12-20T00:23:46.784Z,10.73
2017-12-20T00:26:13.715Z,11.93
2017-12-20T00:28:41.397Z,10.65
2017-12-20T00:31:08.320Z,12.90
2017-12-20T00:33:36.031Z,12.48
2017-12-20T00:36:02.962Z,12.75
2017-12-20T00:38:29.888Z,12.32
2017-12-20T00:40:56.829Z,11.60
2017-12-20T00:43:23.752Z,11.93
2017-12-20T00:45:51.444Z,11.90
2017-12-20T00:48:18.375Z,11.55
2017-12-20T00:50:46.076Z,11.85
2017-12-20T00:53:12.989Z,12.52
2017-12-20T00:55:39.927Z,12.48
2017-12-20T00:58:06.937Z,12.93
2017-12-20T01:00:33.872Z,14.00
2017-12-20T01:03:00.784Z,14.70
2017-12-20T01:05:27.716Z,16.15
2017-12-20T01:07:55.387Z,16.98
2017-12-20T01:10:22.293Z,18.02
2017-12-20T01:12:49.248Z,20.23
2017-12-20T01:15:16.933Z,20.90
2017-12-20T01:17:43.864Z,18.75
2017-12-20T01:20:10.789Z,16.87
2017-12-20T01:22:38.504Z,19.30
2017-12-20T01:25:05.465Z,16.48
2017-12-20T01:27:32.380Z,16.62
2017-12-20T01:29:59.304Z,14.77
2017-12-20T01:32:26.228Z,14.38
2017-12-20T01:34:53.904Z,15.50
2017-12-20T01:37:21.576Z,15.18
2017-12-20T01:39:48.497Z,15.27
2017-12-20T01:42:16.181Z,13.13
2017-12-20T01:44:43.496Z,16.70
2017-12-20T01:47:10.408Z,18.77
2017-12-20T01:49:37.317Z,19.00
2017-12-20T01:52:05.013Z,20.10
2017-12-20T01:54:32.713Z,16.08
2017-12-20T01:56:59.625Z,16.10
2017-12-20T01:59:26.553Z,16.52
2017-12-20T02:01:54.241Z,16.52
2017-12-20T02:04:21.160Z,15.90
2017-12-20T02:06:48.068Z,15.60
2017-12-20T02:09:14.993Z,16.45
2017-12-20T02:11:41.903Z,15.10
2017-12-20T02:14:08.835Z,15.43
2017-12-20T02:16:35.740Z,15.68
2017-12-20T02:19:02.670Z,15.00
2017-12-20T02:21:29.576Z,13.77
2017-12-20T02:23:56.504Z,16.00
2017-12-20T02:26:23.408Z,14.57
2017-12-20T02:28:50.312Z,15.43
2017-12-20T02:31:17.228Z,13.25
2017-12-20T02:33:44.164Z,15.25
2017-12-20T02:36:11.076Z,15.98
2017-12-20T02:38:37.983Z,16.05
2017-12-20T02:41:08.631Z,15.60
2017-12-20T02:43:36.338Z,14.57
2017-12-20T02:46:03.277Z,16.40
2017-12-20T02:48:30.184Z,16.48
2017-12-20T02:50:57.868Z,15.38
2017-12-20T02:53:24.772Z,15.85
2017-12-20T02:55:51.700Z,15.80
2017-12-20T02:58:18.615Z,17.08
2017-12-20T03:00:45.545Z,16.05
2017-12-20T03:03:12.452Z,15.60
2017-12-20T03:05:39.380Z,13.05
2017-12-20T03:08:06.290Z,15.60
2017-12-20T03:10:33.221Z,15.57
2017-12-20T03:13:00.144Z,16.52
2017-12-20T03:15:27.085Z,14.65
2017-12-20T03:17:54.001Z,16.90
2017-12-20T03:20:21.680Z,16.48
2017-12-20T03:22:49.381Z,14.85
2017-12-20T03:25:16.293Z,14.45
2017-12-20T03:27:43.984Z,14.63
2017-12-20T03:30:10.899Z,15.20
2017-12-20T03:32:37.820Z,15.65
2017-12-20T03:35:04.750Z,14.75
2017-12-20T03:37:32.437Z,15.65
2017-12-20T03:40:00.116Z,15.65
2017-12-20T03:42:27.059Z,13.50
2017-12-20T03:44:53.976Z,15.40
2017-12-20T03:47:20.912Z,15.00
2017-12-20T03:49:47.817Z,14.32
2017-12-20T03:52:14.742Z,14.63
2017-12-20T03:54:41.669Z,15.85
2017-12-20T03:57:10.273Z,14.25
2017-12-20T03:59:37.211Z,13.90
2017-12-20T04:02:04.148Z,13.98
2017-12-20T04:04:31.060Z,14.18
2017-12-20T04:06:57.982Z,14.82
2017-12-20T04:09:24.894Z,14.15
2017-12-20T04:11:51.816Z,14.95
2017-12-20T04:14:19.493Z,13.13
2017-12-20T04:16:46.421Z,14.35
2017-12-20T04:19:14.092Z,13.82
2017-12-20T04:21:41.042Z,14.80
2017-12-20T04:24:07.956Z,14.60
2017-12-20T04:26:34.869Z,14.27
2017-12-20T04:29:01.847Z,13.55
2017-12-20T04:31:28.724Z,13.52
2017-12-20T04:33:55.673Z,13.77
2017-12-20T04:36:22.596Z,13.85
2017-12-20T04:38:50.293Z,13.18
2017-12-20T04:41:17.205Z,14.50
2017-12-20T04:43:44.915Z,14.75
2017-12-20T04:46:11.821Z,14.50
2017-12-20T04:48:38.749Z,13.57
2017-12-20T04:51:06.425Z,14.32
2017-12-20T04:53:33.349Z,13.18
2017-12-20T04:56:00.265Z,15.35
2017-12-20T04:58:27.193Z,13.95
2017-12-20T05:00:54.872Z,14.07
2017-12-20T05:03:21.794Z,15.48
2017-12-20T05:05:48.717Z,14.10
2017-12-20T05:08:16.421Z,14.00
2017-12-20T05:10:43.345Z,13.98
2017-12-20T05:13:10.274Z,13.18
2017-12-20T05:15:37.181Z,12.80
2017-12-20T05:18:04.124Z,13.30
2017-12-20T05:20:31.814Z,13.30
2017-12-20T05:22:58.736Z,13.65
2017-12-20T05:25:25.652Z,13.68
2017-12-20T05:27:52.571Z,14.30
2017-12-20T05:30:20.258Z,13.77
2017-12-20T05:32:47.231Z,13.48
2017-12-20T05:35:14.149Z,12.90
2017-12-20T05:37:41.071Z,12.20
2017-12-20T05:40:07.996Z,13.93
2017-12-20T05:42:35.673Z,11.88
2017-12-20T05:45:03.369Z,13.38
2017-12-20T05:47:30.321Z,11.98
2017-12-20T05:49:57.249Z,11.65
2017-12-20T05:52:24.161Z,13.38
2017-12-20T05:54:51.881Z,12.20
2017-12-20T05:57:18.800Z,12.82
2017-12-20T05:59:45.728Z,11.27
2017-12-20T06:02:12.637Z,11.70
2017-12-20T06:04:39.570Z,13.02
2017-12-20T06:07:07.244Z,11.95
2017-12-20T06:09:34.940Z,11.70
2017-12-20T06:12:01.849Z,12.07
2017-12-20T06:14:28.780Z,12.55
2017-12-20T06:16:56.451Z,12.80
2017-12-20T06:19:24.158Z,10.10
2017-12-20T06:21:51.068Z,10.65
2017-12-20T06:24:18.061Z,12.95
2017-12-20T06:26:44.922Z,13.40
2017-12-20T06:29:11.845Z,12.35
2017-12-20T06:31:38.753Z,14.32
2017-12-20T06:34:05.672Z,13.27
2017-12-20T06:36:33.351Z,13.20
2017-12-20T06:39:00.267Z,11.95
2017-12-20T06:41:27.179Z,13.52
2017-12-20T06:43:54.101Z,12.27
2017-12-20T06:46:21.020Z,13.35
2017-12-20T06:48:47.967Z,13.77
2017-12-20T06:51:14.901Z,14.55
2017-12-20T06:53:41.843Z,14.38
2017-12-20T06:56:08.769Z,14.98
2017-12-20T06:58:35.705Z,13.55
2017-12-20T07:01:02.634Z,13.52
2017-12-20T07:03:30.325Z,16.20
2017-12-20T07:05:57.232Z,15.18
2017-12-20T07:08:24.953Z,14.60
2017-12-20T07:10:51.882Z,13.18
2017-12-20T07:13:18.817Z,14.90
2017-12-20T07:15:46.638Z,13.98
2017-12-20T07:18:13.560Z,14.23
2017-12-20T07:20:41.232Z,13.30
2017-12-20T07:23:08.145Z,14.27
2017-12-20T07:25:35.091Z,12.00
2017-12-20T07:28:02.107Z,14.48
2017-12-20T07:30:29.019Z,13.65
2017-12-20T07:32:56.881Z,12.25
2017-12-20T07:35:23.785Z,11.60
2017-12-20T07:37:51.455Z,10.98
2017-12-20T07:40:19.140Z,11.75
2017-12-20T07:42:46.062Z,10.65
2017-12-20T07:45:12.998Z,10.77
2017-12-20T07:47:40.693Z,10.05
2017-12-20T07:50:07.600Z,10.32
2017-12-20T07:52:35.392Z,10.13
2017-12-20T07:55:02.301Z,10.55
2017-12-20T07:57:29.223Z,10.65
2017-12-20T07:59:56.145Z,11.07
2017-12-20T08:02:23.043Z,11.05
2017-12-20T08:04:50.768Z,10.55
2017-12-20T08:07:17.708Z,11.02
2017-12-20T08:09:44.620Z,11.60
2017-12-20T08:12:11.570Z,14.27
2017-12-20T08:14:38.480Z,12.88
2017-12-20T08:17:06.156Z,11.40
2017-12-20T08:19:33.847Z,11.10
2017-12-20T08:22:00.760Z,10.48
2017-12-20T08:24:28.466Z,10.75
2017-12-20T08:26:55.394Z,12.25
2017-12-20T08:29:22.321Z,11.27
2017-12-20T08:31:49.999Z,11.35
2017-12-20T08:34:16.938Z,10.68
2017-12-20T08:36:43.850Z,12.52
2017-12-20T08:39:10.765Z,11.18
2017-12-20T08:41:37.693Z,11.43
2017-12-20T08:44:04.601Z,10.60
2017-12-20T08:46:32.297Z,11.38
2017-12-20T08:48:59.209Z,10.70
2017-12-20T08:51:26.137Z,10.60
2017-12-20T08:53:53.047Z,11.52
2017-12-20T08:56:19.971Z,10.80
2017-12-20T08:58:46.887Z,10.38
2017-12-20T09:01:13.816Z,9.93
2017-12-20T09:03:41.488Z,10.65
2017-12-20T09:06:08.408Z,10.57
2017-12-20T09:08:36.089Z,11.90
2017-12-20T09:11:03.016Z,11.20
2017-12-20T09:13:30.899Z,10.20
2017-12-20T09:15:57.833Z,11.07
2017-12-20T09:18:24.741Z,9.60
2017-12-20T09:20:51.668Z,10.95
2017-12-20T09:23:20.261Z,10.93
2017-12-20T09:25:47.202Z,10.13
2017-12-20T09:28:14.104Z,10.50
2017-12-20T09:30:41.016Z,9.75
2017-12-20T09:33:07.940Z,11.68
2017-12-20T09:35:34.849Z,13.05
2017-12-20T09:38:02.553Z,11.02
2017-12-20T09:40:29.461Z,14.10
2017-12-20T09:42:57.153Z,10.18
2017-12-20T09:45:24.060Z,10.82
2017-12-20T09:47:50.990Z,9.70
2017-12-20T09:50:18.672Z,9.85
2017-12-20T09:52:45.597Z,10.75
2017-12-20T09:55:13.280Z,10.40
2017-12-20T09:57:40.200Z,10.98
2017-12-20T10:00:07.877Z,10.68
2017-12-20T10:02:34.820Z,10.70
2017-12-20T10:05:01.746Z,9.93
2017-12-20T10:07:29.447Z,11.02
2017-12-20T10:09:56.375Z,11.20
2017-12-20T10:12:23.305Z,11.70
2017-12-20T10:14:50.216Z,10.40
2017-12-20T10:17:17.148Z,10.45
2017-12-20T10:19:44.829Z,9.45
2017-12-20T10:22:11.753Z,10.48
2017-12-20T10:24:39.454Z,10.48
2017-12-20T10:27:06.381Z,11.90
2017-12-20T10:29:33.297Z,10.45
2017-12-20T10:34:27.920Z,10.23
2017-12-20T10:36:55.611Z,12.00
2017-12-20T10:39:22.540Z,11.50
2017-12-20T10:41:50.221Z,10.80
2017-12-20T10:44:17.163Z,10.73
2017-12-20T10:46:44.075Z,11.45
2017-12-20T10:49:11.002Z,10.82
2017-12-20T10:51:37.917Z,10.43
2017-12-20T10:54:04.840Z,11.27
2017-12-20T10:56:31.760Z,11.77
2017-12-20T10:58:59.448Z,10.80
2017-12-20T11:01:26.359Z,11.50
2017-12-20T11:03:53.274Z,11.80
2017-12-20T11:06:20.201Z,12.00
2017-12-20T11:08:47.104Z,10.88
2017-12-20T11:11:14.823Z,11.50
2017-12-20T11:13:41.732Z,11.60
2017-12-20T11:16:08.670Z,10.93
2017-12-20T11:18:35.588Z,11.75
2017-12-20T11:21:03.285Z,9.95
2017-12-20T11:23:30.196Z,10.05
2017-12-20T11:25:57.129Z,9.55
2017-12-20T11:28:24.814Z,10.23
2017-12-20T11:30:51.749Z,11.60
2017-12-20T11:33:18.666Z,10.18
2017-12-20T11:35:45.588Z,9.63
2017-12-20T11:38:12.500Z,11.35
2017-12-20T11:40:39.428Z,10.00
2017-12-20T11:43:06.336Z,10.98
2017-12-20T11:45:33.325Z,9.50
2017-12-20T11:48:00.202Z,10.13
2017-12-20T11:50:27.128Z,10.93
2017-12-20T11:52:54.040Z,10.85
2017-12-20T11:55:21.729Z,11.57
2017-12-20T11:57:48.643Z,11.32
2017-12-20T12:00:15.569Z,11.65
2017-12-20T12:02:42.484Z,11.45
2017-12-20T12:05:09.409Z,10.25
2017-12-20T12:07:36.321Z,12.23
2017-12-20T12:10:05.021Z,13.43
2017-12-20T12:12:31.945Z,10.65
2017-12-20T12:14:59.645Z,12.30
2017-12-20T12:17:26.568Z,10.63
2017-12-20T12:19:53.501Z,11.95
2017-12-20T12:22:20.412Z,12.70
2017-12-20T12:24:48.358Z,14.02
2017-12-20T12:27:15.293Z,13.40
2017-12-20T12:29:42.203Z,13.27
2017-12-20T12:32:09.895Z,12.68
2017-12-20T12:34:36.804Z,13.43
2017-12-20T12:37:03.724Z,13.40
2017-12-20T12:39:32.064Z,13.20
2017-12-20T12:41:58.988Z,13.48
2017-12-20T12:44:25.900Z,14.27
2017-12-20T12:46:52.826Z,11.70
2017-12-20T12:49:19.736Z,13.62
2017-12-20T12:51:46.659Z,12.60
2017-12-20T12:54:14.504Z,13.00
2017-12-20T12:56:41.420Z,13.77
2017-12-20T12:59:08.332Z,13.62
2017-12-20T13:01:35.272Z,13.57
2017-12-20T13:04:02.948Z,12.80
2017-12-20T13:06:30.783Z,13.60
2017-12-20T13:08:57.712Z,12.57
2017-12-20T13:11:25.404Z,11.02
2017-12-20T13:13:52.311Z,11.48
2017-12-20T13:16:19.991Z,12.40
2017-12-20T13:18:46.936Z,12.52
2017-12-20T13:21:13.860Z,13.13
2017-12-20T13:23:41.544Z,12.02
2017-12-20T13:26:08.500Z,11.38
2017-12-20T13:28:35.423Z,12.45
2017-12-20T13:31:03.100Z,12.48
2017-12-20T13:33:30.036Z,13.10
2017-12-20T13:35:56.956Z,12.25
2017-12-20T13:38:23.915Z,11.98
2017-12-20T13:40:50.832Z,14.98
2017-12-20T13:43:17.779Z,12.32
2017-12-20T13:45:44.702Z,8.00
2017-12-20T13:48:11.640Z,10.75
2017-12-20T13:50:38.549Z,11.77
2017-12-20T13:53:05.483Z,11.73
2017-12-20T13:55:33.164Z,10.82
2017-12-20T13:58:00.098Z,11.35
2017-12-20T14:00:27.795Z,11.38
2017-12-20T14:02:54.743Z,11.32
2017-12-20T14:05:22.664Z,10.90
2017-12-20T14:07:49.581Z,10.18
2017-12-20T14:10:16.507Z,10.85
2017-12-20T14:12:44.228Z,11.57
2017-12-20T14:15:11.172Z,10.98
2017-12-20T14:17:38.140Z,9.35
2017-12-20T14:20:05.053Z,10.07
2017-12-20T14:22:31.996Z,10.35
2017-12-20T14:25:00.977Z,10.88
2017-12-20T14:27:27.941Z,9.52
2017-12-20T14:29:54.857Z,9.15
2017-12-20T14:32:21.833Z,10.57
2017-12-20T14:34:48.749Z,11.15
2017-12-20T14:37:15.680Z,11.70
2017-12-20T14:39:42.601Z,12.07
2017-12-20T14:42:10.532Z,11.32
2017-12-20T14:44:37.450Z,12.80
2017-12-20T14:47:04.385Z,12.73
2017-12-20T14:49:31.310Z,13.70
2017-12-20T14:51:58.249Z,12.40
2017-12-20T14:54:26.188Z,13.77
2017-12-20T14:56:53.124Z,11.98
2017-12-20T14:59:20.037Z,11.43
2017-12-20T15:01:46.994Z,10.40
2017-12-20T15:04:14.690Z,10.43
2017-12-20T15:06:41.633Z,11.02
2017-12-20T15:09:08.551Z,9.65
2017-12-20T15:11:36.268Z,10.95
2017-12-20T15:14:03.201Z,10.38
2017-12-20T15:16:33.649Z,11.82
2017-12-20T15:19:05.440Z,11.82
2017-12-20T15:21:32.372Z,11.15
2017-12-20T15:24:00.253Z,10.85
2017-12-20T15:26:27.945Z,12.45
2017-12-20T15:28:54.859Z,12.77
2017-12-20T15:31:22.569Z,13.07
2017-12-20T15:33:49.476Z,14.15
2017-12-20T15:36:16.400Z,14.93
2017-12-20T15:38:44.075Z,14.00
2017-12-20T15:41:11.785Z,15.30
2017-12-20T15:43:38.713Z,15.90
2017-12-20T15:46:05.661Z,13.45
2017-12-20T15:48:32.620Z,15.50
2017-12-20T15:50:59.573Z,14.70
2017-12-20T15:53:26.484Z,14.85
2017-12-20T15:55:53.421Z,13.85
2017-12-20T15:58:20.348Z,14.43
2017-12-20T16:00:49.049Z,16.70
2017-12-20T16:03:15.978Z,17.08
2017-12-20T16:05:43.649Z,15.77
2017-12-20T16:08:11.337Z,17.77
2017-12-20T16:10:39.152Z,16.30
2017-12-20T16:13:06.096Z,19.45
2017-12-20T16:15:33.010Z,20.25
2017-12-20T16:17:59.945Z,15.48
2017-12-20T16:20:27.760Z,17.23
2017-12-20T16:22:55.459Z,18.33
2017-12-20T16:25:22.369Z,17.77
2017-12-20T16:27:50.082Z,18.48
2017-12-20T16:30:16.988Z,20.08
2017-12-20T16:32:44.671Z,19.33
2017-12-20T16:35:11.583Z,18.02
2017-12-20T16:37:39.264Z,17.92
2017-12-20T16:40:06.189Z,19.75
2017-12-20T16:42:33.097Z,16.48
2017-12-20T16:45:00.049Z,20.55
2017-12-20T16:47:26.981Z,20.75
2017-12-20T16:49:54.801Z,21.40
2017-12-20T16:52:22.518Z,22.33
2017-12-20T16:54:49.433Z,20.70
2017-12-20T16:57:19.713Z,20.37
2017-12-20T16:59:46.641Z,17.73
2017-12-20T17:02:13.569Z,20.58
2017-12-20T17:04:40.497Z,19.58
2017-12-20T17:07:07.409Z,20.08
2017-12-20T17:09:34.349Z,21.30
2017-12-20T17:12:01.313Z,20.35
2017-12-20T17:14:28.273Z,24.37
2017-12-20T17:16:56.145Z,19.00
2017-12-20T17:19:23.052Z,18.35
2017-12-20T17:21:50.016Z,20.65
2017-12-20T17:24:17.696Z,15.07
2017-12-20T17:26:44.613Z,14.65
2017-12-20T17:29:11.545Z,14.65
2017-12-20T17:31:38.468Z,12.57
2017-12-20T17:34:05.392Z,14.77
2017-12-20T17:36:32.308Z,15.63
2017-12-20T17:38:59.242Z,14.65
2017-12-20T17:41:26.937Z,14.07
2017-12-20T17:43:53.853Z,14.68
2017-12-20T17:46:20.803Z,14.35
2017-12-20T17:48:48.489Z,11.68
2017-12-20T17:51:15.441Z,17.27
2017-12-20T17:53:42.363Z,14.70
2017-12-20T17:56:09.306Z,13.32
2017-12-20T17:58:36.241Z,16.20
2017-12-20T18:01:03.160Z,15.20
2017-12-20T18:03:30.082Z,13.32
2017-12-20T18:05:56.994Z,14.52
2017-12-20T18:08:23.915Z,16.60
2017-12-20T18:10:50.834Z,12.85
2017-12-20T18:13:23.910Z,15.27
2017-12-20T18:15:51.608Z,15.38
2017-12-20T18:18:18.540Z,15.80
2017-12-20T18:20:47.403Z,17.58
2017-12-20T18:23:14.324Z,12.00
2017-12-20T18:25:41.276Z,15.65
2017-12-20T18:28:08.187Z,16.83
2017-12-20T18:30:38.973Z,16.50
2017-12-20T18:33:05.948Z,15.20
2017-12-20T18:35:32.885Z,13.90
2017-12-20T18:37:59.856Z,15.38
2017-12-20T18:40:26.770Z,14.57
2017-12-20T18:42:53.680Z,16.70
2017-12-20T18:45:20.626Z,14.25
2017-12-20T18:47:47.594Z,13.43
2017-12-20T18:50:14.541Z,15.43
2017-12-20T18:52:41.458Z,15.60
2017-12-20T18:55:09.205Z,13.45
2017-12-20T18:57:36.157Z,14.38
2017-12-20T19:00:03.862Z,14.50
2017-12-20T19:02:30.806Z,13.50
2017-12-20T19:04:58.684Z,15.57
2017-12-20T19:07:25.596Z,13.50
2017-12-20T19:09:53.496Z,15.85
2017-12-20T19:12:20.404Z,13.27
2017-12-20T19:14:47.335Z,14.32
2017-12-20T19:17:14.477Z,14.57
2017-12-20T19:19:42.429Z,14.52
2017-12-20T19:22:09.346Z,15.43
2017-12-20T19:24:37.037Z,14.27
2017-12-20T19:27:03.943Z,14.40
2017-12-20T19:29:30.867Z,13.15
2017-12-20T19:31:57.768Z,14.00
2017-12-20T19:34:25.464Z,11.80
2017-12-20T19:36:52.386Z,13.27
2017-12-20T19:39:19.362Z,14.32
2017-12-20T19:41:46.304Z,15.07
2017-12-20T19:44:13.238Z,10.85
2017-12-20T19:46:40.156Z,12.68
2017-12-20T19:49:07.090Z,10.18
2017-12-20T19:51:33.996Z,13.75
2017-12-20T19:54:01.721Z,14.13
2017-12-20T19:56:28.649Z,15.10
2017-12-20T19:58:55.597Z,14.00
2017-12-20T20:01:22.502Z,14.75
2017-12-20T20:03:59.473Z,11.85
2017-12-20T20:06:26.376Z,14.95
2017-12-20T20:08:53.314Z,13.20
2017-12-20T20:11:20.230Z,13.40
2017-12-20T20:13:47.163Z,14.98
2017-12-20T20:16:14.080Z,13.65
2017-12-20T20:18:41.939Z,12.43
2017-12-20T20:21:09.616Z,12.95
2017-12-20T20:23:38.322Z,15.63
2017-12-20T20:26:05.233Z,15.77
2017-12-20T20:28:32.166Z,17.98
2017-12-20T20:30:59.840Z,16.67
2017-12-20T20:33:26.766Z,15.48
2017-12-20T20:35:53.663Z,16.80
2017-12-20T20:38:21.343Z,17.45
2017-12-20T20:40:48.256Z,16.25
2017-12-20T20:43:15.190Z,20.80
2017-12-20T20:45:45.760Z,17.48
2017-12-20T20:48:12.676Z,15.80
2017-12-20T20:50:40.600Z,15.88
2017-12-20T20:53:08.308Z,15.02
2017-12-20T20:55:35.221Z,14.30
2017-12-20T20:58:02.917Z,14.60
2017-12-20T21:00:29.833Z,15.18
2017-12-20T21:02:56.763Z,15.10
2017-12-20T21:05:23.673Z,13.65
2017-12-20T21:07:51.168Z,15.43
2017-12-20T21:10:18.079Z,15.02
2017-12-20T21:12:45.000Z,14.43
2017-12-20T21:15:11.905Z,15.40
2017-12-20T21:17:39.595Z,15.63
2017-12-20T21:20:07.428Z,14.27
2017-12-20T21:22:35.144Z,13.18
2017-12-20T21:25:03.815Z,14.68
2017-12-20T21:27:30.740Z,16.45
2017-12-20T21:29:57.665Z,14.27
2017-12-20T21:32:25.381Z,16.33
2017-12-20T21:34:52.325Z,14.87
2017-12-20T21:37:19.232Z,15.52
2017-12-20T21:39:46.148Z,17.33
2017-12-20T21:42:13.089Z,14.75
2017-12-20T21:44:40.010Z,15.90
2017-12-20T21:47:07.689Z,17.42
2017-12-20T21:49:34.619Z,16.77
2017-12-20T21:52:01.535Z,17.52
2017-12-20T21:54:28.492Z,15.40
2017-12-20T21:56:56.175Z,15.93
2017-12-20T21:59:23.881Z,15.07
2017-12-20T22:01:50.798Z,14.30
2017-12-20T22:04:17.733Z,13.93
2017-12-20T22:06:44.648Z,15.30
2017-12-20T22:09:12.343Z,15.68
2017-12-20T22:11:39.252Z,14.30
2017-12-20T22:14:06.177Z,15.98
2017-12-20T22:16:33.108Z,15.07
2017-12-20T22:19:00.041Z,18.30
2017-12-20T22:21:27.732Z,16.87
2017-12-20T22:23:55.588Z,15.25
2017-12-20T22:26:23.264Z,16.83
2017-12-20T22:28:50.189Z,14.65
2017-12-20T22:31:17.173Z,16.87
2017-12-20T22:33:44.116Z,15.48
2017-12-20T22:36:11.029Z,15.95
2017-12-20T22:38:38.705Z,17.58
2017-12-20T22:41:05.634Z,17.80
2017-12-20T22:43:33.308Z,14.90
2017-12-20T22:46:00.238Z,15.63
2017-12-20T22:48:27.187Z,17.10
2017-12-20T22:50:54.114Z,18.23
2017-12-20T22:53:21.016Z,18.25
2017-12-20T22:55:47.936Z,17.70
2017-12-20T22:58:19.439Z,16.42
2017-12-20T23:00:47.200Z,17.33
2017-12-20T23:03:14.103Z,17.40
2017-12-20T23:05:41.028Z,16.40
2017-12-20T23:08:07.932Z,15.57
2017-12-20T23:10:35.627Z,17.05
2017-12-20T23:13:02.539Z,16.23
2017-12-20T23:15:30.234Z,15.90
2017-12-20T23:17:57.140Z,15.85
2017-12-20T23:20:24.058Z,16.62
2017-12-20T23:22:50.974Z,15.52
2017-12-20T23:25:17.881Z,18.55
2017-12-20T23:27:45.576Z,15.75
2017-12-20T23:30:12.502Z,13.23
2017-12-20T23:32:39.413Z,16.35
2017-12-20T23:35:06.316Z,16.25
2017-12-20T23:37:33.239Z,13.95
2017-12-20T23:40:00.148Z,13.95
2017-12-20T23:42:27.097Z,12.30
2017-12-20T23:44:54.008Z,12.65
2017-12-20T23:47:20.961Z,15.93
2017-12-20T23:49:47.880Z,13.30
2017-12-20T23:52:14.801Z,13.73
2017-12-20T23:54:42.652Z,13.55
2017-12-20T23:57:10.340Z,11.75
2017-12-20T23:59:37.248Z,11.48
